Time;durP1;ratioP1;P1;durP2;ratioP2;P2;SDS_P1;SDS_P2;PMS_P1;PMS_P2;Temp;Humidity;BMP_temperature;BMP_pressure;BME280_temperature;BME280_humidity;BME280_pressure;Samples;Min_cycle;Max_cycle;Signal;HPM_P1;HPM_P2
2022/06/08 00:07:13;;;;;;;4.60;4.20;;;;;;;15.34;80.44;99082.07;432173;1271;141989;-56
2022/06/08 00:17:16;;;;;;;5.50;5.00;;;;;;;15.31;80.39;99076.66;433152;1271;142468;-58
2022/06/08 00:27:19;;;;;;;6.20;5.60;;;;;;;15.27;80.72;99064.85;431714;1271;142173;-59
2022/06/08 00:37:23;;;;;;;4.80;4.20;;;;;;;15.15;80.91;99048.66;435359;1269;142186;-57
2022/06/08 00:47:30;;;;;;;4.50;4.10;;;;;;;15.10;81.08;99033.11;433115;1271;147027;-58
2022/06/08 00:57:39;;;;;;;3.70;3.30;;;;;;;15.05;81.12;99018.96;434097;1269;142312;-57
2022/06/08 01:07:42;;;;;;;;;;;;;;;15.01;81.35;99014.21;433448;1269;145936;-58
2022/06/08 01:17:45;;;;;;;4.20;3.80;;;;;;;14.99;81.56;99017.98;431752;1269;128569;-55
2022/06/08 01:28:02;;;;;;;4.50;4.00;;;;;;;15.01;81.91;99009.98;432944;1270;144152;-55
2022/06/08 01:38:20;;;;;;;4.60;4.20;;;;;;;14.97;82.25;99009.20;443058;1270;144500;-57
2022/06/08 01:48:43;;;;;;;8.60;4.50;;;;;;;14.92;82.27;99002.66;440106;1270;141909;-57
2022/06/08 01:58:55;;;;;;;6.10;4.60;;;;;;;14.92;82.50;99010.20;433740;1270;142618;-57
2022/06/08 02:09:05;;;;;;;7.50;6.70;;;;;;;14.99;82.93;99022.98;440278;1270;142204;-57
2022/06/08 02:19:15;;;;;;;9.40;8.50;;;;;;;15.08;83.03;99029.02;435471;1270;146486;-58
2022/06/08 02:29:23;;;;;;;12.00;10.90;;;;;;;15.07;83.06;99028.28;434017;1270;143205;-58
2022/06/08 02:39:28;;;;;;;;;;;;;;;15.05;83.16;99041.96;437477;1269;142027;-57
2022/06/08 02:49:34;;;;;;;16.20;14.70;;;;;;;15.06;83.48;99036.80;448003;1269;129550;-57
2022/06/08 02:59:44;;;;;;;18.30;16.80;;;;;;;15.10;83.44;99041.91;437134;1269;142346;-58
2022/06/08 03:09:49;;;;;;;20.40;18.50;;;;;;;15.14;83.60;99042.24;436669;1270;146203;-58
2022/06/08 03:19:53;;;;;;;16.30;14.70;;;;;;;15.20;83.48;99044.35;440948;1270;144272;-58
2022/06/08 03:29:56;;;;;;;17.50;15.80;;;;;;;15.23;83.42;99045.11;438385;1269;143038;-58
2022/06/08 03:40:03;;;;;;;16.50;14.90;;;;;;;15.29;83.49;99045.08;432543;1270;141964;-58
2022/06/08 03:50:11;;;;;;;15.50;13.90;;;;;;;15.31;83.61;99048.44;432238;1270;142114;-58
2022/06/08 04:00:17;;;;;;;18.30;16.70;;;;;;;15.31;83.74;99050.01;439400;1269;144435;-57
2022/06/08 04:10:20;;;;;;;15.70;14.00;;;;;;;15.37;83.85;99040.14;439085;1270;142530;-57
2022/06/08 04:20:23;;;;;;;17.40;15.40;;;;;;;15.41;83.84;99027.60;439286;1269;143005;-55
2022/06/08 04:30:27;;;;;;;15.00;13.50;;;;;;;15.54;84.00;99028.56;439182;1269;143013;-56
2022/06/08 04:40:31;;;;;;;14.70;13.40;;;;;;;15.65;83.83;99032.39;441085;1269;141861;-55
2022/06/08 04:50:34;;;;;;;16.10;13.60;;;;;;;15.87;83.68;99035.18;445796;1269;142345;-55
2022/06/08 05:00:37;;;;;;;16.60;15.10;;;;;;;16.29;83.10;99047.73;444091;1269;143110;-56
2022/06/08 05:10:40;;;;;;;15.60;14.20;;;;;;;16.47;82.50;99046.75;435065;1268;142213;-53
2022/06/08 05:20:45;;;;;;;14.60;13.30;;;;;;;16.63;81.84;99049.13;432763;1269;141864;-53
2022/06/08 05:30:49;;;;;;;13.00;11.70;;;;;;;16.81;81.26;99051.64;440210;1268;142181;-51
2022/06/08 05:40:53;;;;;;;14.10;12.70;;;;;;;17.07;80.69;99052.58;445453;1268;147818;-52
2022/06/08 05:50:56;;;;;;;10.90;9.90;;;;;;;17.35;79.68;99061.38;440197;1269;142782;-53
2022/06/08 06:00:59;;;;;;;11.90;10.90;;;;;;;17.44;78.91;99060.04;444226;1270;148179;-54
2022/06/08 06:11:03;;;;;;;10.50;9.40;;;;;;;17.81;78.23;99049.89;441188;1269;146102;-52
2022/06/08 06:21:06;;;;;;;9.00;8.10;;;;;;;18.41;76.65;99055.16;435637;1269;141919;-53
2022/06/08 06:31:12;;;;;;;7.70;7.10;;;;;;;18.56;75.40;99064.02;442315;1269;142770;-49
2022/06/08 06:41:17;;;;;;;6.60;6.00;;;;;;;18.76;74.90;99065.48;431880;1270;141806;-50
2022/06/08 06:51:20;;;;;;;4.50;4.10;;;;;;;19.71;73.28;99052.77;447946;1269;142787;-53
2022/06/08 07:01:23;;;;;;;5.80;5.30;;;;;;;20.47;70.99;99055.84;447928;1269;143189;-53
2022/06/08 07:11:33;;;;;;;4.40;3.80;;;;;;;21.67;69.62;99046.27;442276;1269;147774;-52
2022/06/08 07:21:36;;;;;;;3.10;2.90;;;;;;;23.01;66.18;99044.90;434893;1270;141492;-53
2022/06/08 07:31:40;;;;;;;6.20;3.20;;;;;;;23.21;63.96;99049.40;436269;1269;141831;-52
2022/06/08 07:41:44;;;;;;;3.20;2.70;;;;;;;23.34;62.90;99050.42;434595;1269;141741;-54
2022/06/08 07:51:53;;;;;;;3.00;2.70;;;;;;;23.85;61.39;99045.54;447973;1269;142627;-54
2022/06/08 08:01:57;;;;;;;2.90;2.70;;;;;;;24.53;59.12;99044.56;440765;1270;141641;-52
2022/06/08 08:12:00;;;;;;;5.10;2.50;;;;;;;25.26;57.15;99049.97;440777;1269;148191;-52
2022/06/08 08:22:04;;;;;;;6.00;3.00;;;;;;;24.98;56.35;99052.31;447842;1269;142572;-52
2022/06/08 08:32:10;;;;;;;10.50;3.70;;;;;;;24.07;56.83;99062.14;442939;1269;245882;-53
2022/06/08 08:42:24;;;;;;;7.60;4.40;;;;;;;23.71;57.53;99047.77;442965;1269;142402;-53
2022/06/08 08:52:40;;;;;;;6.40;4.50;;;;;;;24.36;56.58;99039.81;448023;1269;142787;-52
2022/06/08 09:13:06;;;;;;;5.00;3.40;;;;;;;23.69;56.81;99048.95;447834;1270;141558;-53
2022/06/08 09:23:26;;;;;;;4.00;2.90;;;;;;;23.22;57.17;99060.36;447022;1269;143186;-50
2022/06/08 09:33:34;;;;;;;6.60;3.30;;;;;;;22.92;57.53;99059.20;437064;1269;141104;-48
2022/06/08 09:44:01;;;;;;;14.00;4.50;;;;;;;22.62;57.52;99052.53;447984;1268;141358;-53
2022/06/08 09:54:18;;;;;;;4.50;3.40;;;;;;;22.44;58.14;99047.02;447855;1268;142686;-54
2022/06/08 10:04:45;;;;;;;4.80;3.40;;;;;;;22.62;57.99;99047.05;444830;1270;142349;-53
2022/06/08 10:14:52;;;;;;;6.10;3.20;;;;;;;22.47;58.12;99039.24;441922;1269;141203;-52
2022/06/08 10:25:02;;;;;;;5.20;3.50;;;;;;;22.33;58.27;99033.61;447846;1269;141094;-54
2022/06/08 10:35:18;;;;;;;5.80;3.50;;;;;;;22.47;58.77;99036.11;441583;1269;142401;-54
2022/06/08 10:45:51;;;;;;;3.80;3.20;;;;;;;23.02;58.03;99035.12;445508;1270;143837;-51
2022/06/08 10:55:55;;;;;;;3.60;3.30;;;;;;;23.18;57.05;99033.34;445204;1269;142260;-53
2022/06/08 11:05:58;;;;;;;3.00;2.80;;;;;;;23.42;56.82;99025.17;447833;1269;141503;-54
2022/06/08 11:16:11;;;;;;;5.10;2.40;;;;;;;23.90;56.14;99019.41;447795;1270;143213;-54
2022/06/08 11:26:26;;;;;;;3.80;1.90;;;;;;;24.82;54.74;99018.35;447118;1269;145071;-55
2022/06/08 11:36:48;;;;;;;2.80;1.80;;;;;;;25.30;52.93;99019.55;442705;1269;141733;-55
2022/06/08 11:47:01;;;;;;;13.30;4.20;;;;;;;25.54;52.01;99016.04;442596;1269;142278;-51
2022/06/08 11:57:13;;;;;;;2.60;2.40;;;;;;;25.29;52.01;99020.04;442454;1269;142930;-52
2022/06/08 12:07:37;;;;;;;2.10;2.00;;;;;;;24.54;52.40;99015.58;445301;1269;141679;-54
2022/06/08 12:17:40;;;;;;;2.90;2.40;;;;;;;24.14;52.78;99000.30;447140;1269;182874;-52
2022/06/08 12:27:46;;;;;;;2.30;2.10;;;;;;;24.07;53.23;98995.98;439599;1269;140692;-64
2022/06/08 12:38:00;;;;;;;1.90;1.80;;;;;;;24.10;53.02;98991.63;443368;1270;142395;-68
2022/06/08 12:48:21;;;;;;;1.40;1.30;;;;;;;23.86;53.10;98993.48;442145;1269;142972;-67
2022/06/08 12:58:24;;;;;;;1.80;1.50;;;;;;;23.40;53.42;98991.77;440522;1270;141422;-61
2022/06/08 13:08:28;;;;;;;2.20;2.00;;;;;;;22.82;54.59;98985.54;441849;1269;142643;-61
2022/06/08 13:18:32;;;;;;;3.60;2.30;;;;;;;22.39;56.79;98977.63;435430;1269;141975;-62
2022/06/08 13:28:35;;;;;;;6.00;5.40;;;;;;;22.44;57.43;98975.06;447682;1270;143946;-54
2022/06/08 13:38:38;;;;;;;6.80;6.20;;;;;;;22.16;58.99;98963.25;446988;1270;142869;-54
2022/06/08 13:48:42;;;;;;;5.60;5.10;;;;;;;22.38;59.54;98961.38;447520;1270;143093;-55
2022/06/08 13:58:45;;;;;;;5.70;5.30;;;;;;;22.78;59.16;98954.66;446972;1270;144848;-55
2022/06/08 14:19:17;;;;;;;4.40;4.00;;;;;;;23.18;58.04;98943.95;431534;1270;142663;-52
2022/06/08 14:29:22;;;;;;;3.80;3.50;;;;;;;23.35;57.01;98937.16;437838;1269;142449;-53
2022/06/08 14:39:28;;;;;;;4.70;4.10;;;;;;;23.31;56.52;98930.48;442962;1270;143245;-52
2022/06/08 14:49:34;;;;;;;4.30;3.80;;;;;;;23.41;56.83;98915.52;437325;1270;145696;-52
2022/06/08 14:59:41;;;;;;;4.10;3.80;;;;;;;23.39;56.31;98911.24;447062;1270;143143;-54
2022/06/08 15:09:45;;;;;;;4.50;3.90;;;;;;;23.11;56.66;98908.48;443743;1269;141898;-52
2022/06/08 15:19:52;;;;;;;6.90;4.20;;;;;;;22.76;57.33;98903.32;436872;1269;141837;-55
2022/06/08 15:29:55;;;;;;;5.20;4.70;;;;;;;22.26;57.64;98900.98;438051;1270;141176;-51
2022/06/08 15:40:00;;;;;;;4.10;3.80;;;;;;;21.92;58.45;98910.44;437482;1270;142134;-56
2022/06/08 15:50:08;;;;;;;4.80;4.40;;;;;;;21.94;58.95;98912.11;432295;1270;141909;-58
2022/06/08 16:00:14;;;;;;;4.50;4.10;;;;;;;21.88;59.06;98908.80;433709;1271;141088;-58
2022/06/08 16:10:18;;;;;;;4.60;4.20;;;;;;;21.62;59.15;98900.10;431768;1271;142232;-57
2022/06/08 16:20:27;;;;;;;6.70;5.00;;;;;;;21.31;59.65;98889.60;431529;1270;141511;-55
2022/06/08 16:30:33;;;;;;;4.60;4.00;;;;;;;20.97;60.55;98883.38;431668;1271;146626;-56
2022/06/08 16:40:39;;;;;;;5.80;4.90;;;;;;;20.98;60.86;98869.02;438945;1270;142055;-58
2022/06/08 16:50:44;;;;;;;5.90;5.30;;;;;;;20.93;61.54;98860.11;432063;1270;141177;-59
2022/06/08 17:00:48;;;;;;;7.50;5.60;;;;;;;20.78;62.22;98856.67;431935;1271;141412;-56
2022/06/08 17:21:13;;;;;;;6.70;6.10;;;;;;;20.36;63.38;98851.42;431147;1271;142490;-55
2022/06/08 17:31:17;;;;;;;6.40;5.90;;;;;;;20.15;63.93;98852.89;432438;1270;142865;-56
2022/06/08 17:41:20;;;;;;;6.70;6.10;;;;;;;19.88;64.17;98853.92;431064;1271;142762;-56
2022/06/08 17:51:23;;;;;;;8.20;7.50;;;;;;;19.58;64.87;98841.17;432657;1270;141641;-57
2022/06/08 18:01:26;;;;;;;7.60;6.90;;;;;;;19.27;65.13;98839.27;432278;1270;143051;-57
2022/06/08 18:21:52;;;;;;;8.60;7.80;;;;;;;18.92;66.47;98834.52;432077;1270;146549;-59
2022/06/08 18:31:55;;;;;;;8.80;8.00;;;;;;;18.83;67.14;98848.30;431753;1269;143309;-57
2022/06/08 18:41:58;;;;;;;8.40;7.70;;;;;;;18.76;67.99;98854.52;432424;1270;187189;-57
2022/06/08 18:52:02;;;;;;;8.50;7.80;;;;;;;18.67;68.37;98867.67;431548;1270;142150;-57
2022/06/08 19:02:11;;;;;;;9.10;8.30;;;;;;;18.54;69.03;98882.55;432027;1270;141989;-56
2022/06/08 19:12:15;;;;;;;8.90;8.20;;;;;;;18.39;69.54;98887.88;432524;1270;141303;-56
2022/06/08 19:22:18;;;;;;;8.20;7.40;;;;;;;18.29;70.09;98895.68;432280;1270;142823;-58
2022/06/08 19:32:22;;;;;;;9.10;8.30;;;;;;;18.15;70.53;98898.80;430485;1270;141733;-57
2022/06/08 19:42:25;;;;;;;9.70;8.70;;;;;;;18.03;71.13;98903.74;434988;1270;142636;-58
2022/06/08 19:52:29;;;;;;;9.10;8.20;;;;;;;17.93;71.78;98892.16;442628;1269;148967;-57
2022/06/08 20:02:32;;;;;;;11.20;10.00;;;;;;;17.87;72.14;98883.22;446656;1268;142082;-59
2022/06/08 20:12:36;;;;;;;11.10;9.40;;;;;;;17.80;72.77;98874.83;442119;1270;142379;-57
2022/06/08 20:22:40;;;;;;;9.10;8.10;;;;;;;17.73;73.13;98873.42;441448;1269;141418;-56
2022/06/08 20:32:43;;;;;;;9.40;8.60;;;;;;;17.60;73.51;98870.72;433152;1269;299917;-57
2022/06/08 20:42:47;;;;;;;8.60;7.90;;;;;;;17.48;73.62;98877.64;438127;1270;141857;-59
2022/06/08 20:52:52;;;;;;;9.00;8.20;;;;;;;17.38;74.03;98891.08;432480;1270;142658;-58
2022/06/08 21:02:56;;;;;;;8.40;6.20;;;;;;;17.28;74.25;98891.00;447655;1269;142186;-58
2022/06/08 21:13:00;;;;;;;9.50;6.60;;;;;;;17.21;74.35;98882.29;436201;1269;142315;-56
2022/06/08 21:23:04;;;;;;;6.00;5.50;;;;;;;17.13;74.35;98863.55;432536;1270;144281;-57
2022/06/08 21:33:10;;;;;;;6.60;5.30;;;;;;;17.05;74.29;98854.02;433720;1270;140765;-57
2022/06/08 21:43:14;;;;;;;8.10;6.60;;;;;;;17.04;74.45;98849.45;433784;1269;141990;-58
2022/06/08 21:53:22;;;;;;;6.80;6.20;;;;;;;16.98;74.71;98858.67;432563;1270;142941;-57
2022/06/08 22:03:28;;;;;;;7.60;6.90;;;;;;;16.90;75.10;98852.73;431402;1269;142961;-57
2022/06/08 22:13:37;;;;;;;8.90;8.00;;;;;;;16.85;75.60;98843.91;433477;1270;143104;-57
2022/06/08 22:23:42;;;;;;;9.60;7.50;;;;;;;16.83;76.02;98840.95;432310;1270;144904;-57
2022/06/08 22:33:47;;;;;;;9.30;8.40;;;;;;;16.80;76.34;98835.30;433093;1270;141306;-58
2022/06/08 22:43:50;;;;;;;8.10;7.30;;;;;;;16.74;76.53;98819.86;430932;1270;147957;-56
2022/06/08 22:53:54;;;;;;;6.90;6.00;;;;;;;16.65;76.79;98812.68;431353;1270;144962;-56
2022/06/08 23:03:57;;;;;;;8.70;7.90;;;;;;;16.51;77.28;98800.05;429770;1270;141902;-57
2022/06/08 23:14:00;;;;;;;11.30;9.20;;;;;;;16.47;77.70;98792.88;429387;1270;142343;-57
2022/06/08 23:24:05;;;;;;;8.90;8.00;;;;;;;16.36;77.91;98787.52;430713;1270;142523;-57
2022/06/08 23:34:08;;;;;;;14.00;9.80;;;;;;;16.27;78.42;98796.02;431872;1270;142536;-58
2022/06/08 23:44:11;;;;;;;8.00;7.20;;;;;;;16.24;78.88;98801.92;430733;1270;143998;-57
2022/06/08 23:54:15;;;;;;;8.70;7.50;;;;;;;16.21;79.03;98816.30;433146;1270;142130;-57
